sensor_id;sensor_type;location;lat;lon;timestamp;pressure;altitude;pressure_sealevel;temperature;humidity
78855;BME280;68206;59.956;30.234;2023-06-04T00:00:30;101165.13;;;11.03;53.57
78855;BME280;68206;59.956;30.234;2023-06-04T00:02:59;101156.28;;;11.02;53.94
78855;BME280;68206;59.956;30.234;2023-06-04T00:05:27;101155.44;;;11.00;53.65
78855;BME280;68206;59.956;30.234;2023-06-04T00:07:55;101155.44;;;11.00;54.02
78855;BME280;68206;59.956;30.234;2023-06-04T00:10:23;101152.00;;;10.97;53.59
78855;BME280;68206;59.956;30.234;2023-06-04T00:12:51;101147.69;;;10.93;54.50
78855;BME280;68206;59.956;30.234;2023-06-04T00:15:20;101139.88;;;10.86;54.24
78855;BME280;68206;59.956;30.234;2023-06-04T00:17:48;101147.75;;;10.88;53.86
78855;BME280;68206;59.956;30.234;2023-06-04T00:20:18;101149.50;;;10.89;53.96
78855;BME280;68206;59.956;30.234;2023-06-04T00:22:46;101147.84;;;10.85;53.67
78855;BME280;68206;59.956;30.234;2023-06-04T00:25:14;101149.66;;;10.83;53.73
78855;BME280;68206;59.956;30.234;2023-06-04T00:27:42;101145.47;;;10.74;54.10
78855;BME280;68206;59.956;30.234;2023-06-04T00:30:12;101150.88;;;10.68;54.38
78855;BME280;68206;59.956;30.234;2023-06-04T00:32:41;101151.88;;;10.64;54.41
78855;BME280;68206;59.956;30.234;2023-06-04T00:35:09;101156.38;;;10.61;54.57
78855;BME280;68206;59.956;30.234;2023-06-04T00:37:38;101150.34;;;10.54;54.35
78855;BME280;68206;59.956;30.234;2023-06-04T00:40:07;101156.56;;;10.53;55.25
78855;BME280;68206;59.956;30.234;2023-06-04T00:42:35;101155.78;;;10.48;55.16
78855;BME280;68206;59.956;30.234;2023-06-04T00:45:05;101151.50;;;10.42;55.11
78855;BME280;68206;59.956;30.234;2023-06-04T00:47:36;101144.44;;;10.41;55.51
78855;BME280;68206;59.956;30.234;2023-06-04T00:50:06;101146.25;;;10.39;55.21
78855;BME280;68206;59.956;30.234;2023-06-04T00:52:35;101144.47;;;10.40;54.92
78855;BME280;68206;59.956;30.234;2023-06-04T00:55:05;101142.84;;;10.34;55.73
78855;BME280;68206;59.956;30.234;2023-06-04T00:57:33;101141.94;;;10.35;55.41
78855;BME280;68206;59.956;30.234;2023-06-04T01:00:02;101139.28;;;10.35;55.66
78855;BME280;68206;59.956;30.234;2023-06-04T01:02:33;101135.66;;;10.38;56.04
78855;BME280;68206;59.956;30.234;2023-06-04T01:05:09;101133.97;;;10.35;55.53
78855;BME280;68206;59.956;30.234;2023-06-04T01:07:40;101139.25;;;10.37;55.65
78855;BME280;68206;59.956;30.234;2023-06-04T01:10:14;101137.38;;;10.40;56.06
78855;BME280;68206;59.956;30.234;2023-06-04T01:12:43;101136.38;;;10.46;55.38
78855;BME280;68206;59.956;30.234;2023-06-04T01:15:12;101135.47;;;10.47;56.37
78855;BME280;68206;59.956;30.234;2023-06-04T01:17:42;101132.75;;;10.50;55.87
78855;BME280;68206;59.956;30.234;2023-06-04T01:20:29;101130.94;;;10.52;56.61
78855;BME280;68206;59.956;30.234;2023-06-04T01:23:14;101124.75;;;10.51;57.74
78855;BME280;68206;59.956;30.234;2023-06-04T01:25:47;101116.81;;;10.51;57.36
78855;BME280;68206;59.956;30.234;2023-06-04T01:28:17;101122.94;;;10.54;57.72
78855;BME280;68206;59.956;30.234;2023-06-04T01:30:48;101130.94;;;10.52;58.21
78855;BME280;68206;59.956;30.234;2023-06-04T01:33:19;101121.97;;;10.58;59.12
78855;BME280;68206;59.956;30.234;2023-06-04T01:35:47;101123.69;;;10.60;58.45
78855;BME280;68206;59.956;30.234;2023-06-04T01:38:15;101123.66;;;10.62;59.01
78855;BME280;68206;59.956;30.234;2023-06-04T01:40:45;101118.28;;;10.63;60.68
78855;BME280;68206;59.956;30.234;2023-06-04T01:43:16;101128.16;;;10.58;63.52
78855;BME280;68206;59.956;30.234;2023-06-04T01:45:44;101129.13;;;10.54;65.17
78855;BME280;68206;59.956;30.234;2023-06-04T01:48:13;101139.00;;;10.47;66.20
78855;BME280;68206;59.956;30.234;2023-06-04T01:50:42;101141.75;;;10.43;67.06
78855;BME280;68206;59.956;30.234;2023-06-04T01:53:10;101143.53;;;10.42;67.55
78855;BME280;68206;59.956;30.234;2023-06-04T01:55:38;101141.53;;;10.52;66.92
78855;BME280;68206;59.956;30.234;2023-06-04T01:58:06;101142.31;;;10.57;66.85
78855;BME280;68206;59.956;30.234;2023-06-04T02:00:37;101138.72;;;10.60;67.17
78855;BME280;68206;59.956;30.234;2023-06-04T02:03:06;101138.72;;;10.60;67.50
78855;BME280;68206;59.956;30.234;2023-06-04T02:05:36;101140.50;;;10.59;67.11
78855;BME280;68206;59.956;30.234;2023-06-04T02:08:04;101137.84;;;10.59;67.94
78855;BME280;68206;59.956;30.234;2023-06-04T02:10:32;101131.81;;;10.52;68.68
78855;BME280;68206;59.956;30.234;2023-06-04T02:13:01;101143.53;;;10.42;68.07
78855;BME280;68206;59.956;30.234;2023-06-04T02:15:31;101151.50;;;10.42;67.92
78855;BME280;68206;59.956;30.234;2023-06-04T02:18:12;101148.84;;;10.42;68.27
78855;BME280;68206;59.956;30.234;2023-06-04T02:21:04;101155.16;;;10.37;68.70
78855;BME280;68206;59.956;30.234;2023-06-04T02:23:33;101153.31;;;10.39;67.78
78855;BME280;68206;59.956;30.234;2023-06-04T02:26:02;101157.72;;;10.40;68.30
78855;BME280;68206;59.956;30.234;2023-06-04T02:28:30;101149.94;;;10.32;68.48
78855;BME280;68206;59.956;30.234;2023-06-04T02:30:58;101147.19;;;10.37;68.20
78855;BME280;68206;59.956;30.234;2023-06-04T02:33:28;101147.25;;;10.34;68.48
78855;BME280;68206;59.956;30.234;2023-06-04T02:35:56;101151.78;;;10.29;68.35
78855;BME280;68206;59.956;30.234;2023-06-04T02:38:24;101146.53;;;10.26;68.27
78855;BME280;68206;59.956;30.234;2023-06-04T02:40:53;101139.47;;;10.26;68.52
78855;BME280;68206;59.956;30.234;2023-06-04T02:43:21;101147.41;;;10.26;68.98
78855;BME280;68206;59.956;30.234;2023-06-04T02:45:49;101139.59;;;10.20;68.68
78855;BME280;68206;59.956;30.234;2023-06-04T02:48:17;101136.13;;;10.15;68.99
78855;BME280;68206;59.956;30.234;2023-06-04T02:50:47;101135.25;;;10.15;68.62
78855;BME280;68206;59.956;30.234;2023-06-04T02:53:15;101136.28;;;10.09;68.60
78855;BME280;68206;59.956;30.234;2023-06-04T02:55:43;101129.31;;;10.03;68.94
78855;BME280;68206;59.956;30.234;2023-06-04T02:58:11;101129.34;;;10.02;68.55
78855;BME280;68206;59.956;30.234;2023-06-04T03:00:42;101129.38;;;10.00;68.05
78855;BME280;68206;59.956;30.234;2023-06-04T03:03:10;101133.84;;;9.98;67.61
78855;BME280;68206;59.956;30.234;2023-06-04T03:05:39;101130.41;;;9.93;68.01
78855;BME280;68206;59.956;30.234;2023-06-04T03:08:09;101122.44;;;9.93;67.91
78855;BME280;68206;59.956;30.234;2023-06-04T03:10:38;101125.94;;;9.97;68.00
78855;BME280;68206;59.956;30.234;2023-06-04T03:13:06;101126.72;;;10.00;67.74
78855;BME280;68206;59.956;30.234;2023-06-04T03:15:34;101116.19;;;9.99;67.96
78855;BME280;68206;59.956;30.234;2023-06-04T03:18:06;101128.44;;;10.03;68.14
78855;BME280;68206;59.956;30.234;2023-06-04T03:20:34;101130.97;;;10.09;67.62
78855;BME280;68206;59.956;30.234;2023-06-04T03:23:05;101122.09;;;10.11;67.34
78855;BME280;68206;59.956;30.234;2023-06-04T03:25:34;101129.06;;;10.16;66.54
78855;BME280;68206;59.956;30.234;2023-06-04T03:28:03;101123.81;;;10.12;66.35
78855;BME280;68206;59.956;30.234;2023-06-04T03:30:32;101116.81;;;10.10;66.28
78855;BME280;68206;59.956;30.234;2023-06-04T03:33:03;101119.50;;;10.08;65.45
78855;BME280;68206;59.956;30.234;2023-06-04T03:35:32;101110.50;;;10.16;65.55
78855;BME280;68206;59.956;30.234;2023-06-04T03:38:01;101120.25;;;10.17;65.09
78855;BME280;68206;59.956;30.234;2023-06-04T03:40:30;101106.09;;;10.18;64.62
78855;BME280;68206;59.956;30.234;2023-06-04T03:43:00;101109.66;;;10.13;63.96
78855;BME280;68206;59.956;30.234;2023-06-04T03:45:32;101114.00;;;10.19;63.50
78855;BME280;68206;59.956;30.234;2023-06-04T03:48:00;101108.75;;;10.15;63.61
78855;BME280;68206;59.956;30.234;2023-06-04T03:50:29;101110.47;;;10.19;63.64
78855;BME280;68206;59.956;30.234;2023-06-04T03:52:57;101104.94;;;10.29;63.08
78855;BME280;68206;59.956;30.234;2023-06-04T03:55:28;101109.41;;;10.27;63.49
78855;BME280;68206;59.956;30.234;2023-06-04T03:58:01;101111.19;;;10.27;63.43
78855;BME280;68206;59.956;30.234;2023-06-04T04:00:29;101102.91;;;10.40;63.46
78855;BME280;68206;59.956;30.234;2023-06-04T04:03:00;101102.63;;;10.52;63.73
78855;BME280;68206;59.956;30.234;2023-06-04T04:05:30;101106.06;;;10.58;63.76
78855;BME280;68206;59.956;30.234;2023-06-04T04:07:58;101106.94;;;10.58;64.24
78855;BME280;68206;59.956;30.234;2023-06-04T04:10:30;101106.78;;;10.64;63.44
78855;BME280;68206;59.956;30.234;2023-06-04T04:12:58;101097.06;;;10.63;63.48
78855;BME280;68206;59.956;30.234;2023-06-04T04:15:31;101106.88;;;10.61;63.93
78855;BME280;68206;59.956;30.234;2023-06-04T04:18:03;101102.28;;;10.68;64.85
78855;BME280;68206;59.956;30.234;2023-06-04T04:20:32;101098.66;;;10.70;63.90
78855;BME280;68206;59.956;30.234;2023-06-04T04:23:06;101098.75;;;10.67;65.33
78855;BME280;68206;59.956;30.234;2023-06-04T04:25:38;101105.88;;;10.65;65.16
78855;BME280;68206;59.956;30.234;2023-06-04T04:28:07;101099.69;;;10.65;65.25
78855;BME280;68206;59.956;30.234;2023-06-04T04:30:39;101094.47;;;10.62;65.39
78855;BME280;68206;59.956;30.234;2023-06-04T04:33:09;101091.47;;;10.75;65.25
78855;BME280;68206;59.956;30.234;2023-06-04T04:35:43;101093.75;;;10.90;65.26
78855;BME280;68206;59.956;30.234;2023-06-04T04:38:15;101092.28;;;10.79;65.29
78855;BME280;68206;59.956;30.234;2023-06-04T04:40:51;101090.03;;;10.62;65.43
78855;BME280;68206;59.956;30.234;2023-06-04T04:43:30;101088.47;;;10.54;66.31
78855;BME280;68206;59.956;30.234;2023-06-04T04:46:08;101066.28;;;10.58;67.26
78855;BME280;68206;59.956;30.234;2023-06-04T04:48:37;101085.28;;;10.75;66.46
78855;BME280;68206;59.956;30.234;2023-06-04T04:51:08;101093.47;;;11.37;67.13
78855;BME280;68206;59.956;30.234;2023-06-04T04:53:37;101095.72;;;11.50;64.81
78855;BME280;68206;59.956;30.234;2023-06-04T04:56:05;101092.28;;;11.47;65.18
78855;BME280;68206;59.956;30.234;2023-06-04T04:58:37;101085.03;;;11.53;65.16
78855;BME280;68206;59.956;30.234;2023-06-04T05:01:07;101085.22;;;11.46;64.72
78855;BME280;68206;59.956;30.234;2023-06-04T05:03:38;101083.19;;;11.23;65.53
78855;BME280;68206;59.956;30.234;2023-06-04T05:06:08;101069.22;;;11.16;65.93
78855;BME280;68206;59.956;30.234;2023-06-04T05:08:37;101070.34;;;11.06;66.73
78855;BME280;68206;59.956;30.234;2023-06-04T05:11:05;101079.44;;;10.98;66.40
78855;BME280;68206;59.956;30.234;2023-06-04T05:13:33;101072.25;;;11.01;66.49
78855;BME280;68206;59.956;30.234;2023-06-04T05:16:04;101077.53;;;11.03;66.50
78855;BME280;68206;59.956;30.234;2023-06-04T05:18:39;101070.63;;;10.96;67.49
78855;BME280;68206;59.956;30.234;2023-06-04T05:21:10;101076.63;;;11.04;66.25
78855;BME280;68206;59.956;30.234;2023-06-04T05:23:46;101066.78;;;11.07;67.02
78855;BME280;68206;59.956;30.234;2023-06-04T05:26:17;101069.53;;;11.04;67.49
78855;BME280;68206;59.956;30.234;2023-06-04T05:28:54;101084.75;;;10.98;67.40
78855;BME280;68206;59.956;30.234;2023-06-04T05:31:27;101077.56;;;11.01;67.69
78855;BME280;68206;59.956;30.234;2023-06-04T05:33:59;101073.81;;;11.10;67.04
78855;BME280;68206;59.956;30.234;2023-06-04T05:36:30;101075.72;;;11.05;67.44
78855;BME280;68206;59.956;30.234;2023-06-04T05:39:02;101077.53;;;11.03;68.43
78855;BME280;68206;59.956;30.234;2023-06-04T05:41:37;101084.66;;;11.01;69.13
78855;BME280;68206;59.956;30.234;2023-06-04T05:44:08;101070.19;;;11.12;68.92
78855;BME280;68206;59.956;30.234;2023-06-04T05:46:36;101076.88;;;11.27;68.26
78855;BME280;68206;59.956;30.234;2023-06-04T05:49:05;101079.91;;;11.78;67.50
78855;BME280;68206;59.956;30.234;2023-06-04T05:51:34;101077.22;;;12.09;66.63
78855;BME280;68206;59.956;30.234;2023-06-04T05:54:02;101082.00;;;12.27;66.24
78855;BME280;68206;59.956;30.234;2023-06-04T05:56:34;101077.66;;;12.52;64.29
78855;BME280;68206;59.956;30.234;2023-06-04T05:59:03;101077.38;;;13.14;62.85
78855;BME280;68206;59.956;30.234;2023-06-04T06:01:32;101074.31;;;13.26;61.99
78855;BME280;68206;59.956;30.234;2023-06-04T06:04:00;101072.00;;;12.89;61.47
78855;BME280;68206;59.956;30.234;2023-06-04T06:06:31;101079.84;;;12.68;62.27
78855;BME280;68206;59.956;30.234;2023-06-04T06:08:59;101078.13;;;12.65;62.88
78855;BME280;68206;59.956;30.234;2023-06-04T06:11:28;101078.22;;;12.62;63.20
78855;BME280;68206;59.956;30.234;2023-06-04T06:13:56;101071.25;;;12.58;63.06
78855;BME280;68206;59.956;30.234;2023-06-04T06:16:24;101075.69;;;12.58;62.63
78855;BME280;68206;59.956;30.234;2023-06-04T06:18:53;101068.31;;;12.39;62.84
78855;BME280;68206;59.956;30.234;2023-06-04T06:21:22;101073.06;;;12.30;63.01
78855;BME280;68206;59.956;30.234;2023-06-04T06:23:53;101076.47;;;12.33;63.81
78855;BME280;68206;59.956;30.234;2023-06-04T06:26:21;101081.13;;;12.27;63.89
78855;BME280;68206;59.956;30.234;2023-06-04T06:28:54;101072.38;;;12.23;64.02
78855;BME280;68206;59.956;30.234;2023-06-04T06:31:23;101086.22;;;12.05;64.67
78855;BME280;68206;59.956;30.234;2023-06-04T06:33:51;101088.38;;;11.92;66.25
78855;BME280;68206;59.956;30.234;2023-06-04T06:36:19;101075.38;;;11.82;65.99
78855;BME280;68206;59.956;30.234;2023-06-04T06:38:47;101074.28;;;11.89;66.19
78855;BME280;68206;59.956;30.234;2023-06-04T06:41:17;101073.47;;;11.87;67.19
78855;BME280;68206;59.956;30.234;2023-06-04T06:43:45;101079.63;;;11.87;68.08
78855;BME280;68206;59.956;30.234;2023-06-04T06:46:13;101093.16;;;11.80;68.01
78855;BME280;68206;59.956;30.234;2023-06-04T06:48:41;101107.16;;;11.54;69.66
78855;BME280;68206;59.956;30.234;2023-06-04T06:51:13;101092.81;;;11.59;69.90
78855;BME280;68206;59.956;30.234;2023-06-04T06:53:41;101097.31;;;11.56;69.37
78855;BME280;68206;59.956;30.234;2023-06-04T06:56:09;101099.59;;;11.69;69.39
78855;BME280;68206;59.956;30.234;2023-06-04T06:58:39;101105.63;;;11.78;68.86
78855;BME280;68206;59.956;30.234;2023-06-04T07:01:07;101107.78;;;11.62;70.09
78855;BME280;68206;59.956;30.234;2023-06-04T07:03:36;101109.34;;;11.69;70.02
78855;BME280;68206;59.956;30.234;2023-06-04T07:06:05;101105.00;;;11.68;69.74
78855;BME280;68206;59.956;30.234;2023-06-04T07:08:33;101107.56;;;11.69;69.86
78855;BME280;68206;59.956;30.234;2023-06-04T07:11:03;101105.97;;;11.64;70.62
78855;BME280;68206;59.956;30.234;2023-06-04T07:13:32;101107.75;;;11.63;69.20
78855;BME280;68206;59.956;30.234;2023-06-04T07:16:04;101107.72;;;11.65;68.25
78855;BME280;68206;59.956;30.234;2023-06-04T07:18:34;101095.16;;;11.70;69.01
78855;BME280;68206;59.956;30.234;2023-06-04T07:21:02;101103.16;;;11.68;68.10
78855;BME280;68206;59.956;30.234;2023-06-04T07:23:31;101105.00;;;11.68;67.17
78855;BME280;68206;59.956;30.234;2023-06-04T07:25:59;101102.25;;;11.69;67.81
78855;BME280;68206;59.956;30.234;2023-06-04T07:28:27;101109.28;;;11.74;68.06
78855;BME280;68206;59.956;30.234;2023-06-04T07:30:55;101100.13;;;12.13;68.57
78855;BME280;68206;59.956;30.234;2023-06-04T07:33:26;101099.78;;;12.81;68.35
78855;BME280;68206;59.956;30.234;2023-06-04T07:35:56;101100.81;;;13.03;66.29
78855;BME280;68206;59.956;30.234;2023-06-04T07:38:24;101110.41;;;13.35;65.85
78855;BME280;68206;59.956;30.234;2023-06-04T07:40:52;101115.78;;;14.06;64.60
78855;BME280;68206;59.956;30.234;2023-06-04T07:43:20;101117.28;;;14.37;61.70
78855;BME280;68206;59.956;30.234;2023-06-04T07:45:49;101103.50;;;14.26;61.09
78855;BME280;68206;59.956;30.234;2023-06-04T07:48:17;101113.06;;;14.08;61.26
78855;BME280;68206;59.956;30.234;2023-06-04T07:50:47;101121.91;;;14.10;61.77
78855;BME280;68206;59.956;30.234;2023-06-04T07:53:15;101118.31;;;14.11;61.03
78855;BME280;68206;59.956;30.234;2023-06-04T07:55:43;101118.22;;;14.12;61.35
78855;BME280;68206;59.956;30.234;2023-06-04T07:58:11;101119.88;;;14.17;62.14
78855;BME280;68206;59.956;30.234;2023-06-04T08:00:39;101120.91;;;14.59;61.33
78855;BME280;68206;59.956;30.234;2023-06-04T08:03:08;101119.66;;;15.31;60.31
78855;BME280;68206;59.956;30.234;2023-06-04T08:05:37;101129.16;;;15.99;57.68
78855;BME280;68206;59.956;30.234;2023-06-04T08:08:06;101137.31;;;16.35;55.88
78855;BME280;68206;59.956;30.234;2023-06-04T08:10:34;101134.28;;;16.62;55.37
78855;BME280;68206;59.956;30.234;2023-06-04T08:13:02;101134.53;;;16.93;53.98
78855;BME280;68206;59.956;30.234;2023-06-04T08:15:30;101132.22;;;17.04;54.02
78855;BME280;68206;59.956;30.234;2023-06-04T08:18:18;101127.19;;;17.15;53.30
78855;BME280;68206;59.956;30.234;2023-06-04T08:21:09;101133.50;;;17.14;52.55
78855;BME280;68206;59.956;30.234;2023-06-04T08:23:57;101141.13;;;17.05;52.68
78855;BME280;68206;59.956;30.234;2023-06-04T08:26:47;101146.22;;;16.92;52.44
78855;BME280;68206;59.956;30.234;2023-06-04T08:29:35;101149.81;;;16.74;52.37
78855;BME280;68206;59.956;30.234;2023-06-04T08:32:08;101146.81;;;16.80;52.45
78855;BME280;68206;59.956;30.234;2023-06-04T08:34:48;101139.69;;;16.98;51.97
78855;BME280;68206;59.956;30.234;2023-06-04T08:37:16;101139.56;;;17.18;51.72
78855;BME280;68206;59.956;30.234;2023-06-04T08:39:45;101138.00;;;17.31;50.97
78855;BME280;68206;59.956;30.234;2023-06-04T08:42:17;101135.97;;;17.53;50.71
78855;BME280;68206;59.956;30.234;2023-06-04T08:44:50;101145.44;;;17.78;50.08
78855;BME280;68206;59.956;30.234;2023-06-04T08:47:20;101140.31;;;17.90;50.22
78855;BME280;68206;59.956;30.234;2023-06-04T08:49:52;101141.72;;;17.97;49.41
78855;BME280;68206;59.956;30.234;2023-06-04T08:52:21;101145.06;;;17.85;49.84
78855;BME280;68206;59.956;30.234;2023-06-04T08:54:50;101144.25;;;17.83;50.31
78855;BME280;68206;59.956;30.234;2023-06-04T08:57:19;101140.44;;;18.04;49.96
78855;BME280;68206;59.956;30.234;2023-06-04T08:59:47;101155.97;;;18.15;49.71
78855;BME280;68206;59.956;30.234;2023-06-04T09:02:16;101142.66;;;18.29;49.60
78855;BME280;68206;59.956;30.234;2023-06-04T09:04:45;101151.72;;;18.11;50.00
78855;BME280;68206;59.956;30.234;2023-06-04T09:07:14;101136.03;;;18.03;50.83
78855;BME280;68206;59.956;30.234;2023-06-04T09:09:46;101148.72;;;18.00;50.93
78855;BME280;68206;59.956;30.234;2023-06-04T09:12:24;101139.13;;;17.79;50.65
78855;BME280;68206;59.956;30.234;2023-06-04T09:14:53;101140.47;;;17.70;50.88
78855;BME280;68206;59.956;30.234;2023-06-04T09:17:21;101141.88;;;17.60;50.95
78855;BME280;68206;59.956;30.234;2023-06-04T09:19:50;101136.66;;;17.57;50.72
78855;BME280;68206;59.956;30.234;2023-06-04T09:22:19;101132.16;;;17.57;50.81
78855;BME280;68206;59.956;30.234;2023-06-04T09:24:47;101138.25;;;17.44;51.50
78855;BME280;68206;59.956;30.234;2023-06-04T09:27:17;101138.22;;;17.26;51.95
78855;BME280;68206;59.956;30.234;2023-06-04T09:29:53;101131.63;;;17.16;51.96
78855;BME280;68206;59.956;30.234;2023-06-04T09:32:22;101142.09;;;17.21;52.29
78855;BME280;68206;59.956;30.234;2023-06-04T09:34:50;101140.13;;;17.24;51.99
78855;BME280;68206;59.956;30.234;2023-06-04T09:37:20;101140.44;;;17.18;51.80
78855;BME280;68206;59.956;30.234;2023-06-04T09:39:53;101140.03;;;17.09;52.07
78855;BME280;68206;59.956;30.234;2023-06-04T09:42:22;101137.47;;;16.88;51.67
78855;BME280;68206;59.956;30.234;2023-06-04T09:44:52;101141.47;;;16.80;51.68
78855;BME280;68206;59.956;30.234;2023-06-04T09:47:20;101145.75;;;16.65;52.02
78855;BME280;68206;59.956;30.234;2023-06-04T09:49:49;101138.72;;;16.63;51.68
78855;BME280;68206;59.956;30.234;2023-06-04T09:52:19;101148.91;;;16.54;51.82
78855;BME280;68206;59.956;30.234;2023-06-04T09:54:48;101136.88;;;16.44;50.97
78855;BME280;68206;59.956;30.234;2023-06-04T09:57:17;101137.09;;;16.40;52.13
78855;BME280;68206;59.956;30.234;2023-06-04T09:59:49;101142.97;;;16.29;52.94
78855;BME280;68206;59.956;30.234;2023-06-04T10:02:21;101139.69;;;16.04;52.53
78855;BME280;68206;59.956;30.234;2023-06-04T10:04:54;101141.59;;;16.00;52.74
78855;BME280;68206;59.956;30.234;2023-06-04T10:07:24;101138.28;;;15.95;53.24
78855;BME280;68206;59.956;30.234;2023-06-04T10:09:53;101139.97;;;15.78;52.98
78855;BME280;68206;59.956;30.234;2023-06-04T10:12:25;101135.44;;;15.80;52.45
78855;BME280;68206;59.956;30.234;2023-06-04T10:14:59;101131.66;;;15.84;52.80
78855;BME280;68206;59.956;30.234;2023-06-04T10:17:32;101135.00;;;15.68;53.29
78855;BME280;68206;59.956;30.234;2023-06-04T10:20:01;101138.66;;;15.67;52.37
78855;BME280;68206;59.956;30.234;2023-06-04T10:22:32;101144.38;;;15.58;52.95
78855;BME280;68206;59.956;30.234;2023-06-04T10:25:01;101149.41;;;15.66;53.25
78855;BME280;68206;59.956;30.234;2023-06-04T10:27:30;101135.78;;;15.50;52.85
78855;BME280;68206;59.956;30.234;2023-06-04T10:29:59;101143.03;;;15.48;52.59
78855;BME280;68206;59.956;30.234;2023-06-04T10:32:30;101136.81;;;15.48;52.51
78855;BME280;68206;59.956;30.234;2023-06-04T10:35:03;101142.06;;;15.49;52.39
78855;BME280;68206;59.956;30.234;2023-06-04T10:37:35;101148.63;;;15.42;52.36
78855;BME280;68206;59.956;30.234;2023-06-04T10:40:04;101154.09;;;15.39;52.96
78855;BME280;68206;59.956;30.234;2023-06-04T10:42:38;101152.50;;;15.35;53.62
78855;BME280;68206;59.956;30.234;2023-06-04T10:45:07;101153.41;;;15.34;53.40
78855;BME280;68206;59.956;30.234;2023-06-04T10:47:38;101147.41;;;15.29;52.88
78855;BME280;68206;59.956;30.234;2023-06-04T10:50:10;101151.56;;;15.14;53.12
78855;BME280;68206;59.956;30.234;2023-06-04T10:52:39;101150.03;;;15.09;53.44
78855;BME280;68206;59.956;30.234;2023-06-04T10:55:18;101152.56;;;15.12;53.02
78855;BME280;68206;59.956;30.234;2023-06-04T10:57:53;101151.09;;;15.05;53.06
78855;BME280;68206;59.956;30.234;2023-06-04T11:00:22;101145.19;;;14.97;53.40
78855;BME280;68206;59.956;30.234;2023-06-04T11:02:54;101152.03;;;15.04;53.91
78855;BME280;68206;59.956;30.234;2023-06-04T11:05:34;101151.78;;;15.10;54.06
78855;BME280;68206;59.956;30.234;2023-06-04T11:08:03;101157.69;;;14.96;53.22
78855;BME280;68206;59.956;30.234;2023-06-04T11:10:33;101160.41;;;14.94;53.96
78855;BME280;68206;59.956;30.234;2023-06-04T11:13:02;101157.72;;;14.94;53.99
78855;BME280;68206;59.956;30.234;2023-06-04T11:15:42;101147.28;;;14.88;54.41
78855;BME280;68206;59.956;30.234;2023-06-04T11:18:15;101159.97;;;14.83;54.83
78855;BME280;68206;59.956;30.234;2023-06-04T11:20:44;101153.72;;;14.84;54.81
78855;BME280;68206;59.956;30.234;2023-06-04T11:23:13;101152.78;;;14.85;55.09
78855;BME280;68206;59.956;30.234;2023-06-04T11:25:42;101159.72;;;14.89;54.73
78855;BME280;68206;59.956;30.234;2023-06-04T11:28:15;101167.13;;;14.83;54.68
78855;BME280;68206;59.956;30.234;2023-06-04T11:30:55;101164.00;;;14.93;54.77
78855;BME280;68206;59.956;30.234;2023-06-04T11:33:25;101173.69;;;14.96;54.46
78855;BME280;68206;59.956;30.234;2023-06-04T11:35:54;101167.44;;;14.97;54.31
78855;BME280;68206;59.956;30.234;2023-06-04T11:38:22;101180.91;;;14.94;54.22
78855;BME280;68206;59.956;30.234;2023-06-04T11:40:57;101180.03;;;14.93;53.97
78855;BME280;68206;59.956;30.234;2023-06-04T11:43:27;101184.59;;;14.91;54.66
78855;BME280;68206;59.956;30.234;2023-06-04T11:45:56;101186.09;;;14.99;54.40
78855;BME280;68206;59.956;30.234;2023-06-04T11:48:25;101186.09;;;14.99;54.17
78855;BME280;68206;59.956;30.234;2023-06-04T11:50:55;101194.41;;;14.91;54.39
78855;BME280;68206;59.956;30.234;2023-06-04T11:53:24;101191.34;;;14.78;54.46
78855;BME280;68206;59.956;30.234;2023-06-04T11:55:53;101191.44;;;14.75;54.64
78855;BME280;68206;59.956;30.234;2023-06-04T12:11:01;101189.84;;;14.93;55.08
78855;BME280;68206;59.956;30.234;2023-06-04T12:13:37;101198.84;;;14.90;55.28
78855;BME280;68206;59.956;30.234;2023-06-04T12:16:05;101189.91;;;14.91;55.30
78855;BME280;68206;59.956;30.234;2023-06-04T12:18:34;101201.28;;;14.97;55.32
78855;BME280;68206;59.956;30.234;2023-06-04T12:21:02;101195.13;;;14.94;55.13
78855;BME280;68206;59.956;30.234;2023-06-04T12:23:30;101192.66;;;14.90;55.72
78855;BME280;68206;59.956;30.234;2023-06-04T12:25:58;101197.31;;;14.85;56.32
78855;BME280;68206;59.956;30.234;2023-06-04T12:28:30;101196.13;;;14.92;55.43
78855;BME280;68206;59.956;30.234;2023-06-04T12:30:58;101209.50;;;14.92;55.20
78855;BME280;68206;59.956;30.234;2023-06-04T12:33:27;101202.69;;;14.83;55.64
78855;BME280;68206;59.956;30.234;2023-06-04T12:35:54;101208.16;;;14.80;55.49
78855;BME280;68206;59.956;30.234;2023-06-04T12:38:23;101208.09;;;14.82;54.71
78855;BME280;68206;59.956;30.234;2023-06-04T12:40:51;101206.53;;;14.76;55.47
78855;BME280;68206;59.956;30.234;2023-06-04T12:43:19;101211.06;;;14.74;55.36
78855;BME280;68206;59.956;30.234;2023-06-04T12:45:48;101212.00;;;14.73;54.95
78855;BME280;68206;59.956;30.234;2023-06-04T12:48:16;101218.63;;;14.63;53.94
78855;BME280;68206;59.956;30.234;2023-06-04T12:50:44;101210.38;;;14.69;52.85
78855;BME280;68206;59.956;30.234;2023-06-04T12:53:13;101204.94;;;14.72;52.47
78855;BME280;68206;59.956;30.234;2023-06-04T12:55:41;101210.03;;;14.78;52.25
78855;BME280;68206;59.956;30.234;2023-06-04T12:58:09;101216.16;;;14.80;52.56
78855;BME280;68206;59.956;30.234;2023-06-04T13:00:37;101216.34;;;14.76;52.16
78855;BME280;68206;59.956;30.234;2023-06-04T13:03:06;101212.00;;;14.73;52.47
78855;BME280;68206;59.956;30.234;2023-06-04T13:05:36;101218.97;;;14.77;52.73
78855;BME280;68206;59.956;30.234;2023-06-04T13:08:04;101216.09;;;14.82;53.45